Time;durP1;ratioP1;P1;durP2;ratioP2;P2;SDS_P1;SDS_P2;PMS_P1;PMS_P2;Temp;Humidity;BMP_temperature;BMP_pressure;BME280_temperature;BME280_humidity;BME280_pressure;Samples;Min_cycle;Max_cycle;Signal;HPM_P1;HPM_P2
2022/04/10 00:01:06;;;;;;;15.40;12.40;;;;;;;1.22;100.00;98415.47;105375;1268;62524;-72
2022/04/10 00:03:33;;;;;;;21.30;15.60;;;;;;;1.22;100.00;98420.02;105343;1267;76761;-72
2022/04/10 00:05:59;;;;;;;22.10;16.60;;;;;;;1.20;100.00;98421.84;105381;1268;69506;-73
2022/04/10 00:08:26;;;;;;;19.90;14.40;;;;;;;1.19;100.00;98428.54;105334;1268;62167;-72
2022/04/10 00:10:52;;;;;;;22.90;15.70;;;;;;;1.19;100.00;98439.23;105325;1268;62094;-71
2022/04/10 00:13:19;;;;;;;18.10;13.30;;;;;;;1.17;100.00;98448.58;105376;1267;62807;-72
2022/04/10 00:15:45;;;;;;;19.00;14.30;;;;;;;1.13;100.00;98444.15;105347;1268;62045;-72
2022/04/10 00:18:12;;;;;;;20.40;15.60;;;;;;;1.11;100.00;98445.64;105350;1268;62103;-72
2022/04/10 00:20:38;;;;;;;19.40;14.30;;;;;;;1.09;100.00;98449.20;105074;1268;62180;-71
2022/04/10 00:23:05;;;;;;;21.80;16.60;;;;;;;1.07;100.00;98454.00;105329;1268;62078;-72
2022/04/10 00:25:31;;;;;;;23.00;17.00;;;;;;;1.02;100.00;98457.14;105353;1268;62101;-72
2022/04/10 00:27:58;;;;;;;16.70;14.30;;;;;;;0.98;100.00;98458.89;105335;1267;62200;-71
2022/04/10 00:30:25;;;;;;;21.50;14.80;;;;;;;0.93;100.00;98467.67;105060;1271;62181;-72
2022/04/10 00:32:52;;;;;;;17.80;13.50;;;;;;;0.87;100.00;98469.61;105312;1268;72704;-72
2022/04/10 00:35:19;;;;;;;21.40;16.90;;;;;;;0.80;100.00;98469.15;105437;1268;62040;-73
2022/04/10 00:37:46;;;;;;;22.20;18.30;;;;;;;0.75;100.00;98478.42;105306;1268;61941;-71
2022/04/10 00:40:12;;;;;;;20.50;17.00;;;;;;;0.69;100.00;98477.77;105335;1268;62164;-72
2022/04/10 00:42:41;;;;;;;21.30;17.40;;;;;;;0.65;100.00;98478.79;105373;1268;70386;-71
2022/04/10 00:45:09;;;;;;;20.40;18.00;;;;;;;0.61;100.00;98479.25;105348;1268;73615;-73
2022/04/10 00:47:36;;;;;;;19.80;17.70;;;;;;;0.58;100.00;98478.50;105345;1268;62071;-71
2022/04/10 00:50:05;;;;;;;19.80;17.40;;;;;;;0.57;100.00;98481.35;105351;1268;62374;-73
2022/04/10 00:52:32;;;;;;;22.60;18.30;;;;;;;0.55;100.00;98478.63;105314;1268;77585;-71
2022/04/10 00:54:59;;;;;;;21.60;17.80;;;;;;;0.52;100.00;98477.66;105398;1268;69351;-71
2022/04/10 00:57:26;;;;;;;27.60;22.90;;;;;;;0.51;100.00;98473.70;105095;1268;295920;-72
2022/04/10 00:59:53;;;;;;;28.00;23.80;;;;;;;0.49;100.00;98476.20;105667;1268;61912;-72
2022/04/10 01:02:20;;;;;;;29.30;24.10;;;;;;;0.46;100.00;98480.66;105339;1268;62615;-71
2022/04/10 01:04:46;;;;;;;22.80;18.50;;;;;;;0.43;100.00;98477.27;105348;1268;76093;-71
2022/04/10 01:07:16;;;;;;;23.00;16.80;;;;;;;0.40;100.00;98484.02;105359;1268;62075;-71
2022/04/10 01:09:43;;;;;;;19.80;17.10;;;;;;;0.36;100.00;98487.11;105366;1268;73260;-71
2022/04/10 01:12:11;;;;;;;22.40;19.40;;;;;;;0.32;100.00;98490.39;105333;1268;62116;-71
2022/04/10 01:14:39;;;;;;;25.70;20.60;;;;;;;0.28;100.00;98492.81;105319;1268;62018;-72
2022/04/10 01:17:07;;;;;;;26.40;20.90;;;;;;;0.24;100.00;98496.45;105441;1268;76289;-71
2022/04/10 01:19:35;;;;;;;28.50;24.20;;;;;;;0.18;100.00;98495.23;105351;1268;70388;-71
2022/04/10 01:22:05;;;;;;;30.80;26.10;;;;;;;0.12;100.00;98503.11;105041;1268;72717;-71
2022/04/10 01:24:40;;;;;;;34.00;27.00;;;;;;;0.08;100.00;98501.85;105280;1268;62543;-71
2022/04/10 01:27:07;;;;;;;36.10;27.60;;;;;;;0.06;100.00;98501.92;105364;1268;62068;-71
2022/04/10 01:29:33;;;;;;;35.10;26.70;;;;;;;0.05;100.00;98504.94;105402;1268;75909;-72
2022/04/10 01:32:00;;;;;;;32.20;25.40;;;;;;;0.05;100.00;98510.33;105363;1268;69206;-71
2022/04/10 01:34:27;;;;;;;37.00;27.00;;;;;;;0.05;100.00;98516.63;105368;1267;73455;-71
2022/04/10 01:36:54;;;;;;;36.10;25.50;;;;;;;0.04;100.00;98519.30;105316;1268;62103;-71
2022/04/10 01:39:21;;;;;;;37.40;28.00;;;;;;;0.02;100.00;98527.35;104719;1268;1002656;-71
2022/04/10 01:41:48;;;;;;;28.20;24.30;;;;;;;0.02;100.00;98523.54;105381;1268;75222;-72
2022/04/10 01:44:14;;;;;;;23.80;20.00;;;;;;;0.03;100.00;98520.52;105145;1268;69186;-71
2022/04/10 01:46:41;;;;;;;22.40;19.60;;;;;;;0.06;100.00;98516.73;105319;1268;62623;-71
2022/04/10 01:49:08;;;;;;;19.60;16.60;;;;;;;0.11;100.00;98516.42;104602;1268;1002702;-71
2022/04/10 01:51:34;;;;;;;21.40;17.50;;;;;;;0.17;100.00;98513.78;105292;1271;62187;-71
2022/04/10 01:54:01;;;;;;;26.10;19.80;;;;;;;0.23;100.00;98520.06;105356;1268;75607;-71
2022/04/10 01:56:28;;;;;;;28.40;24.20;;;;;;;0.25;100.00;98521.76;105360;1268;70079;-72
2022/04/10 01:58:55;;;;;;;38.20;33.00;;;;;;;0.26;100.00;98521.87;105340;1268;73278;-71
2022/04/10 02:01:22;;;;;;;41.80;32.70;;;;;;;0.27;100.00;98528.48;105097;1268;62174;-71
2022/04/10 02:03:50;;;;;;;45.70;36.90;;;;;;;0.29;100.00;98527.91;105388;1268;62056;-71
2022/04/10 02:06:18;;;;;;;52.00;42.60;;;;;;;0.30;100.00;98533.95;105408;1268;76929;-71
2022/04/10 02:08:45;;;;;;;52.00;45.00;;;;;;;0.32;100.00;98535.14;105354;1268;69234;-72
2022/04/10 02:11:20;;;;;;;52.10;46.40;;;;;;;0.33;100.00;98537.89;105356;1266;73188;-71
2022/04/10 02:13:48;;;;;;;53.50;45.80;;;;;;;0.33;100.00;98540.69;105362;1268;62159;-72
2022/04/10 02:16:16;;;;;;;50.30;41.50;;;;;;;0.33;100.00;98541.73;105349;1268;62190;-71
2022/04/10 02:18:43;;;;;;;55.20;48.90;;;;;;;0.34;100.00;98548.54;105372;1268;76846;-71
2022/04/10 02:21:12;;;;;;;49.90;43.20;;;;;;;0.33;100.00;98555.55;105321;1268;69587;-72
2022/04/10 02:23:39;;;;;;;49.00;42.20;;;;;;;0.32;100.00;98559.23;105297;1268;74227;-72
2022/04/10 02:26:05;;;;;;;48.60;41.90;;;;;;;0.30;100.00;98558.63;105329;1268;62502;-71
2022/04/10 02:28:32;;;;;;;43.50;36.60;;;;;;;0.27;100.00;98560.66;105379;1268;61979;-71
2022/04/10 02:30:58;;;;;;;41.00;33.50;;;;;;;0.24;100.00;98561.80;105095;1268;76129;-72
2022/04/10 02:33:25;;;;;;;44.80;34.50;;;;;;;0.20;100.00;98561.38;105338;1268;62100;-71
2022/04/10 02:35:51;;;;;;;38.40;33.40;;;;;;;0.16;100.00;98558.55;105323;1268;62271;-72
2022/04/10 02:38:18;;;;;;;41.70;34.40;;;;;;;0.13;100.00;98553.41;105371;1268;62178;-72
2022/04/10 02:40:45;;;;;;;42.10;33.00;;;;;;;0.10;100.00;98553.14;104369;1268;1002915;-72
2022/04/10 02:43:13;;;;;;;37.50;29.60;;;;;;;0.08;100.00;98550.07;105383;1268;75172;-71
2022/04/10 02:45:43;;;;;;;36.90;30.30;;;;;;;0.05;100.00;98549.47;105326;1268;66503;-71
2022/04/10 02:48:10;;;;;;;39.70;30.10;;;;;;;0.02;100.00;98555.14;105364;1268;74167;-71
2022/04/10 02:50:38;;;;;;;39.40;29.40;;;;;;;0.01;100.00;98551.02;105417;1268;62015;-73
2022/04/10 02:53:05;;;;;;;35.50;29.90;;;;;;;-0.02;100.00;98552.29;105360;1268;62049;-72
2022/04/10 02:55:32;;;;;;;41.20;32.10;;;;;;;-0.05;100.00;98549.77;105464;1268;75919;-71
2022/04/10 02:57:59;;;;;;;42.30;33.10;;;;;;;-0.09;100.00;98556.70;105340;1268;70181;-71
2022/04/10 03:00:26;;;;;;;38.40;30.10;;;;;;;-0.13;100.00;98561.36;105338;1268;73223;-72
2022/04/10 03:02:53;;;;;;;36.10;26.40;;;;;;;-0.17;100.00;98564.81;105385;1268;62374;-71
2022/04/10 03:05:20;;;;;;;37.40;29.60;;;;;;;-0.22;100.00;98571.05;105346;1268;62011;-72
2022/04/10 03:07:46;;;;;;;41.60;29.60;;;;;;;-0.26;100.00;98569.09;105333;1268;62186;-72
2022/04/10 03:10:12;;;;;;;34.10;28.40;;;;;;;-0.28;100.00;98572.30;105371;1268;62188;-70
2022/04/10 03:12:39;;;;;;;38.00;29.90;;;;;;;-0.32;100.00;98576.08;105387;1268;62190;-71
2022/04/10 03:15:06;;;;;;;35.50;29.30;;;;;;;-0.35;100.00;98575.30;105411;1268;62109;-72
2022/04/10 03:17:33;;;;;;;37.30;31.50;;;;;;;-0.38;100.00;98577.49;105047;1268;61970;-72
2022/04/10 03:19:59;;;;;;;41.60;34.30;;;;;;;-0.40;100.00;98573.00;105304;1268;61938;-72
2022/04/10 03:22:26;;;;;;;44.80;35.00;;;;;;;-0.42;100.00;98571.84;105351;1268;62203;-72
2022/04/10 03:24:52;;;;;;;49.40;37.20;;;;;;;-0.43;100.00;98573.10;105384;1268;62779;-71
2022/04/10 03:27:19;;;;;;;45.40;37.20;;;;;;;-0.44;100.00;98581.13;105308;1268;62159;-72
2022/04/10 03:29:45;;;;;;;41.10;34.20;;;;;;;-0.45;100.00;98583.61;105370;1268;62039;-73
2022/04/10 03:32:32;;;;;;;37.50;31.60;;;;;;;-0.46;100.00;98582.25;105352;1268;62511;-72
2022/04/10 03:34:58;;;;;;;37.60;30.50;;;;;;;-0.46;100.00;98590.44;105063;1274;70208;-73
2022/04/10 03:37:25;;;;;;;37.80;29.10;;;;;;;-0.47;100.00;98592.73;105037;1274;62106;-71
2022/04/10 03:39:51;;;;;;;33.40;26.40;;;;;;;-0.46;100.00;98594.29;105054;1274;62081;-72
2022/04/10 03:42:18;;;;;;;37.40;29.10;;;;;;;-0.43;100.00;98599.96;105037;1274;62152;-72
2022/04/10 03:44:44;;;;;;;37.90;30.90;;;;;;;-0.39;100.00;98603.18;105049;1274;62062;-72
2022/04/10 03:47:11;;;;;;;45.90;34.00;;;;;;;-0.39;100.00;98606.14;105058;1274;62195;-72
2022/04/10 03:49:37;;;;;;;45.30;33.50;;;;;;;-0.39;100.00;98610.67;105024;1274;62049;-73
2022/04/10 03:52:04;;;;;;;49.00;35.90;;;;;;;-0.39;100.00;98609.11;105072;1272;62200;-71
2022/04/10 03:54:31;;;;;;;45.50;36.00;;;;;;;-0.40;100.00;98615.77;104949;1274;62091;-72
2022/04/10 03:56:57;;;;;;;45.80;35.60;;;;;;;-0.40;100.00;98618.56;105083;1273;76021;-73
2022/04/10 03:59:24;;;;;;;45.80;36.80;;;;;;;-0.42;100.00;98620.02;105072;1274;62258;-72
2022/04/10 04:01:51;;;;;;;43.30;35.00;;;;;;;-0.43;100.00;98626.48;105040;1274;73419;-72
2022/04/10 04:04:17;;;;;;;41.90;33.30;;;;;;;-0.44;100.00;98629.83;105044;1274;62130;-73
2022/04/10 04:06:44;;;;;;;41.70;32.70;;;;;;;-0.45;100.00;98632.84;105247;1268;62184;-72
2022/04/10 04:09:11;;;;;;;41.40;33.10;;;;;;;-0.47;100.00;98633.59;105372;1268;62273;-72
2022/04/10 04:11:37;;;;;;;45.50;33.50;;;;;;;-0.49;100.00;98640.07;105329;1268;69512;-72
2022/04/10 04:14:04;;;;;;;41.00;34.60;;;;;;;-0.50;100.00;98643.27;105382;1268;62082;-73
2022/04/10 04:16:31;;;;;;;45.10;36.00;;;;;;;-0.51;100.00;98644.70;105366;1268;62167;-73
2022/04/10 04:18:58;;;;;;;47.90;38.80;;;;;;;-0.51;100.00;98651.15;105344;1268;62037;-71
2022/04/10 04:21:24;;;;;;;42.90;35.60;;;;;;;-0.48;100.00;98654.04;105339;1268;62004;-71
2022/04/10 04:23:51;;;;;;;39.60;32.90;;;;;;;-0.43;100.00;98659.48;105353;1268;62269;-72
2022/04/10 04:26:17;;;;;;;40.80;33.90;;;;;;;-0.34;100.00;98658.00;105318;1268;72239;-72
2022/04/10 04:28:44;;;;;;;37.00;32.80;;;;;;;-0.11;100.00;98659.79;105378;1268;62137;-69
2022/04/10 04:31:10;;;;;;;37.30;30.00;;;;;;;0.08;100.00;98662.69;104657;1268;1002967;-72
2022/04/10 04:33:37;;;;;;;38.90;31.00;;;;;;;0.12;100.00;98669.75;103171;1268;1003865;-72
2022/04/10 04:36:04;;;;;;;34.20;29.20;;;;;;;0.17;100.00;98671.52;105095;1274;62219;-72
2022/04/10 04:38:30;;;;;;;36.40;30.50;;;;;;;0.26;100.00;98673.35;105292;1268;62183;-74
2022/04/10 04:40:57;;;;;;;38.50;29.20;;;;;;;0.38;100.00;98675.09;105334;1268;62087;-71
2022/04/10 04:43:24;;;;;;;39.60;30.40;;;;;;;0.61;100.00;98681.70;105351;1268;62149;-72
2022/04/10 04:45:50;;;;;;;36.80;28.90;;;;;;;1.10;100.00;98683.25;105057;1268;62299;-71
2022/04/10 04:48:17;;;;;;;32.20;26.90;;;;;;;1.57;100.00;98685.85;105366;1268;62106;-73
2022/04/10 04:50:48;;;;;;;34.50;26.50;;;;;;;1.88;100.00;98686.11;105331;1268;62158;-72
2022/04/10 04:53:15;;;;;;;34.80;24.60;;;;;;;1.89;100.00;98690.45;105365;1268;62110;-72
2022/04/10 04:55:41;;;;;;;34.00;25.90;;;;;;;1.84;100.00;98699.05;105324;1268;62012;-73
2022/04/10 04:58:08;;;;;;;29.40;22.50;;;;;;;1.81;100.00;98701.98;105359;1268;77215;-72
2022/04/10 05:00:34;;;;;;;29.20;21.70;;;;;;;1.75;100.00;98707.25;105382;1268;70238;-72
2022/04/10 05:03:01;;;;;;;29.10;20.80;;;;;;;1.78;100.00;98711.36;105257;1268;62517;-72
2022/04/10 05:05:27;;;;;;;25.50;21.60;;;;;;;1.82;100.00;98713.31;105403;1268;62196;-71
2022/04/10 05:07:54;;;;;;;23.60;19.50;;;;;;;1.84;100.00;98715.87;105423;1268;62126;-72
2022/04/10 05:10:20;;;;;;;27.40;20.90;;;;;;;1.84;100.00;98723.91;105415;1268;62089;-72
2022/04/10 05:12:47;;;;;;;29.60;24.30;;;;;;;1.86;100.00;98725.24;105441;1268;62072;-71
2022/04/10 05:15:13;;;;;;;30.10;22.40;;;;;;;1.89;100.00;98725.83;105415;1268;62161;-73
2022/04/10 05:17:40;;;;;;;47.50;31.50;;;;;;;1.92;100.00;98728.70;105377;1268;62559;-72
2022/04/10 05:20:08;;;;;;;37.00;26.90;;;;;;;1.95;100.00;98733.49;105451;1268;62184;-74
2022/04/10 05:22:35;;;;;;;38.90;28.20;;;;;;;1.98;100.00;98734.80;105505;1268;75145;-72
2022/04/10 05:25:01;;;;;;;44.40;29.60;;;;;;;2.04;100.00;98733.02;105489;1268;62157;-73
2022/04/10 05:27:28;;;;;;;54.70;36.20;;;;;;;2.07;100.00;98733.61;105539;1268;73437;-72
2022/04/10 05:29:55;;;;;;;51.20;34.70;;;;;;;2.09;100.00;98737.39;105445;1268;62499;-71
2022/04/10 05:32:21;;;;;;;47.80;31.70;;;;;;;2.13;100.00;98736.17;105465;1268;62062;-71
2022/04/10 05:34:48;;;;;;;36.50;26.80;;;;;;;2.18;100.00;98737.92;105368;1268;62151;-73
2022/04/10 05:37:14;;;;;;;40.30;26.80;;;;;;;2.25;100.00;98741.70;105315;1268;62162;-73
2022/04/10 05:39:42;;;;;;;35.90;26.30;;;;;;;2.34;100.00;98743.82;105326;1268;62171;-72
2022/04/10 05:42:09;;;;;;;28.40;23.30;;;;;;;2.42;100.00;98741.22;105204;1268;62002;-72
2022/04/10 05:44:36;;;;;;;25.50;21.20;;;;;;;2.50;100.00;98749.00;105423;1268;61988;-71
2022/04/10 05:47:03;;;;;;;25.00;19.80;;;;;;;2.59;100.00;98750.77;105138;1272;62066;-72
2022/04/10 05:49:29;;;;;;;27.50;20.50;;;;;;;2.68;100.00;98752.70;105351;1268;69123;-73
2022/04/10 05:51:56;;;;;;;28.40;21.90;;;;;;;2.79;100.00;98755.95;105337;1268;73185;-72
2022/04/10 05:54:22;;;;;;;27.50;20.00;;;;;;;2.90;100.00;98752.03;105347;1268;62093;-72
2022/04/10 05:56:49;;;;;;;23.30;18.70;;;;;;;2.99;100.00;98753.77;105363;1268;62010;-72
2022/04/10 05:59:15;;;;;;;21.30;17.60;;;;;;;3.06;100.00;98760.30;105323;1268;62495;-72
2022/04/10 06:01:42;;;;;;;21.60;16.50;;;;;;;3.14;100.00;98758.27;105362;1268;62062;-72
2022/04/10 06:04:08;;;;;;;19.20;16.20;;;;;;;3.25;100.00;98760.61;105373;1268;73446;-73
2022/04/10 06:06:35;;;;;;;19.80;15.00;;;;;;;3.35;100.00;98764.39;105351;1268;62082;-73
2022/04/10 06:09:01;;;;;;;20.00;15.00;;;;;;;3.45;100.00;98763.29;105343;1268;62177;-71
2022/04/10 06:11:28;;;;;;;18.20;15.80;;;;;;;3.54;100.00;98767.64;105297;1268;62104;-73
2022/04/10 06:13:54;;;;;;;17.80;15.70;;;;;;;3.65;100.00;98766.32;105321;1268;62479;-73
2022/04/10 06:16:21;;;;;;;19.80;15.00;;;;;;;3.75;100.00;98767.10;105367;1268;62074;-72
2022/04/10 06:18:47;;;;;;;17.00;14.50;;;;;;;3.82;100.00;98767.02;105305;1268;62165;-73
2022/04/10 06:21:14;;;;;;;21.80;16.80;;;;;;;3.84;100.00;98769.86;105317;1268;61975;-72
2022/04/10 06:23:40;;;;;;;19.50;15.50;;;;;;;3.89;100.00;98768.27;105377;1268;62324;-71
2022/04/10 06:26:07;;;;;;;18.50;14.70;;;;;;;3.90;100.00;98771.75;105324;1268;62211;-72
2022/04/10 06:28:34;;;;;;;18.20;14.20;;;;;;;3.89;100.00;98772.30;105066;1269;62416;-72
2022/04/10 06:31:01;;;;;;;16.10;14.00;;;;;;;3.94;100.00;98768.95;105353;1268;62108;-73
2022/04/10 06:33:28;;;;;;;18.10;13.90;;;;;;;4.00;100.00;98769.19;105354;1268;62070;-71
2022/04/10 06:35:54;;;;;;;17.40;14.40;;;;;;;4.04;100.00;98767.09;105297;1268;62093;-71
2022/04/10 06:38:21;;;;;;;18.30;15.30;;;;;;;4.16;100.00;98763.22;105034;1268;69199;-71
2022/04/10 06:40:51;;;;;;;18.50;13.50;;;;;;;4.26;100.00;98765.39;105349;1268;74467;-71
2022/04/10 06:43:19;;;;;;;18.40;14.00;;;;;;;4.34;100.00;98765.74;105318;1268;62111;-72
2022/04/10 06:45:47;;;;;;;16.10;14.10;;;;;;;4.45;100.00;98767.01;105385;1269;62046;-72
2022/04/10 06:48:14;;;;;;;15.80;14.10;;;;;;;4.56;100.00;98768.96;105564;1268;76071;-71
2022/04/10 06:50:41;;;;;;;17.10;14.20;;;;;;;4.59;100.00;98770.41;105336;1268;68045;-72
2022/04/10 06:53:07;;;;;;;15.90;14.20;;;;;;;4.63;100.00;98779.71;105298;1268;62073;-73
2022/04/10 06:55:34;;;;;;;16.90;14.70;;;;;;;4.71;100.00;98782.19;105310;1268;62088;-72
2022/04/10 06:58:00;;;;;;;18.00;14.40;;;;;;;4.75;100.00;98785.53;105313;1268;62157;-72
2022/04/10 07:00:27;;;;;;;18.60;13.60;;;;;;;4.75;100.00;98785.52;105340;1268;62132;-73
2022/04/10 07:02:54;;;;;;;16.00;12.90;;;;;;;4.80;100.00;98783.14;105338;1269;69334;-73
2022/04/10 07:05:21;;;;;;;15.40;13.20;;;;;;;4.87;100.00;98783.70;105346;1268;74408;-73
2022/04/10 07:07:47;;;;;;;13.80;11.60;;;;;;;4.89;100.00;98787.47;105324;1268;62096;-71
2022/04/10 07:10:14;;;;;;;15.20;13.30;;;;;;;4.94;100.00;98791.15;105350;1268;62070;-72
2022/04/10 07:12:41;;;;;;;15.20;13.30;;;;;;;5.03;100.00;98791.59;105371;1268;76408;-73
2022/04/10 07:15:07;;;;;;;14.10;12.30;;;;;;;5.20;100.00;98791.31;105287;1268;62085;-73
2022/04/10 07:17:34;;;;;;;15.80;13.50;;;;;;;5.36;100.00;98786.63;105299;1268;73968;-72
2022/04/10 07:20:00;;;;;;;12.30;11.00;;;;;;;5.54;100.00;98790.17;105327;1268;62090;-71
2022/04/10 07:25:12;;;;;;;12.20;10.60;;;;;;;5.84;100.00;98786.17;105029;1272;76245;-72
2022/04/10 07:27:39;;;;;;;11.30;9.70;;;;;;;5.97;100.00;98790.48;105001;1272;68308;-72
2022/04/10 07:30:06;;;;;;;12.20;10.80;;;;;;;6.07;100.00;98795.26;105249;1271;62167;-72
2022/04/10 07:32:33;;;;;;;13.60;10.80;;;;;;;6.16;100.00;98795.16;105367;1271;62582;-72
2022/04/10 07:35:04;;;;;;;11.00;9.90;;;;;;;6.29;100.00;98796.23;105259;1271;62116;-70
2022/04/10 07:37:30;;;;;;;12.90;11.00;;;;;;;6.48;100.00;98798.92;105470;1271;77257;-72
2022/04/10 07:39:57;;;;;;;13.20;10.00;;;;;;;6.67;100.00;98799.13;105295;1268;61985;-72
2022/04/10 07:42:24;;;;;;;12.70;10.90;;;;;;;6.82;100.00;98796.95;105339;1268;72183;-73
2022/04/10 07:44:54;;;;;;;10.60;9.60;;;;;;;6.94;100.00;98798.01;105330;1268;62066;-71
2022/04/10 07:47:27;;;;;;;11.90;10.50;;;;;;;7.15;100.00;98799.52;105313;1268;61956;-72
2022/04/10 07:49:54;;;;;;;11.00;9.60;;;;;;;7.33;100.00;98801.84;105118;1273;76059;-71
2022/04/10 07:52:22;;;;;;;12.80;9.90;;;;;;;7.51;100.00;98801.91;105378;1268;69294;-73
2022/04/10 07:54:49;;;;;;;11.00;9.20;;;;;;;7.56;100.00;98802.50;105363;1268;71877;-71
2022/04/10 07:57:16;;;;;;;12.30;9.10;;;;;;;7.58;100.00;98803.43;105334;1268;62103;-72
2022/04/10 07:59:43;;;;;;;13.40;9.30;;;;;;;7.54;100.00;98799.27;105317;1268;62172;-73
2022/04/10 08:02:10;;;;;;;11.00;8.00;;;;;;;7.49;100.00;98804.46;105328;1268;76239;-72
2022/04/10 08:04:58;;;;;;;11.10;8.80;;;;;;;7.41;100.00;98811.67;105366;1268;70088;-77
2022/04/10 08:07:24;;;;;;;11.70;9.40;;;;;;;7.23;100.00;98809.85;105367;1268;74325;-75
2022/04/10 08:09:51;;;;;;;12.90;9.30;;;;;;;7.02;100.00;98812.79;105307;1268;62095;-72
2022/04/10 08:12:17;;;;;;;11.00;8.70;;;;;;;6.62;99.71;98814.25;105100;1269;62312;-72
2022/04/10 08:14:44;;;;;;;11.60;8.90;;;;;;;6.41;100.00;98819.62;105350;1268;62187;-71
2022/04/10 08:17:12;;;;;;;11.70;8.90;;;;;;;6.27;100.00;98818.58;105296;1268;62520;-73
2022/04/10 08:19:38;;;;;;;11.00;7.90;;;;;;;6.23;100.00;98826.05;105325;1268;73364;-72
2022/04/10 08:22:05;;;;;;;13.70;9.30;;;;;;;6.25;100.00;98826.41;105282;1268;62113;-73
2022/04/10 08:24:31;;;;;;;12.90;9.30;;;;;;;6.24;100.00;98828.06;105323;1268;62072;-74
2022/04/10 08:26:59;;;;;;;13.70;8.80;;;;;;;6.32;100.00;98829.96;105303;1268;61957;-72
2022/04/10 08:29:26;;;;;;;10.90;8.10;;;;;;;6.46;100.00;98827.29;105318;1268;69177;-72
2022/04/10 08:31:52;;;;;;;12.50;7.70;;;;;;;6.63;100.00;98831.48;105307;1268;74229;-73
2022/04/10 08:34:19;;;;;;;9.60;7.80;;;;;;;6.76;100.00;98828.49;105308;1268;62047;-72
2022/04/10 08:36:45;;;;;;;10.00;7.30;;;;;;;6.93;100.00;98833.75;105098;1269;62124;-74
2022/04/10 08:39:12;;;;;;;10.20;6.90;;;;;;;7.16;100.00;98833.40;105308;1268;62066;-73
2022/04/10 08:41:39;;;;;;;11.00;7.50;;;;;;;7.36;99.86;98830.82;105294;1268;69146;-73
2022/04/10 08:44:05;;;;;;;7.20;5.40;;;;;;;7.45;99.83;98834.36;105255;1268;73482;-73
2022/04/10 08:46:36;;;;;;;9.70;6.40;;;;;;;7.48;98.17;98836.50;105256;1268;62167;-72
2022/04/10 08:49:02;;;;;;;10.00;7.00;;;;;;;7.46;96.88;98837.48;105342;1268;62126;-74
2022/04/10 08:51:30;;;;;;;10.10;6.80;;;;;;;7.46;96.10;98830.41;105324;1268;75023;-72
2022/04/10 08:53:57;;;;;;;8.00;7.00;;;;;;;7.49;96.32;98827.64;105328;1268;68877;-75
2022/04/10 08:56:24;;;;;;;11.30;5.50;;;;;;;7.62;96.93;98830.09;105259;1268;73200;-74
2022/04/10 08:58:50;;;;;;;5.80;5.10;;;;;;;7.79;95.79;98828.76;105370;1268;62087;-74
2022/04/10 09:01:22;;;;;;;9.40;6.20;;;;;;;7.89;97.20;98830.77;105404;1268;62430;-73
2022/04/10 09:03:49;;;;;;;8.20;4.90;;;;;;;7.99;98.01;98833.08;105411;1268;75418;-74
2022/04/10 09:06:16;;;;;;;10.10;4.70;;;;;;;7.90;97.12;98832.16;105555;1268;69757;-74
2022/04/10 09:08:44;;;;;;;6.60;4.30;;;;;;;7.62;94.39;98839.40;105120;1268;73377;-74
2022/04/10 09:11:11;;;;;;;8.40;3.40;;;;;;;7.28;94.15;98843.98;105394;1265;62075;-74
2022/04/10 09:13:38;;;;;;;5.40;2.80;;;;;;;7.10;94.54;98841.49;105431;1268;61998;-74
2022/04/10 09:16:12;;;;;;;4.80;2.50;;;;;;;6.96;94.37;98845.05;105083;1268;62126;-74
2022/04/10 09:18:49;;;;;;;5.00;2.70;;;;;;;6.89;95.46;98848.98;105151;1268;70281;-72
2022/04/10 09:21:18;;;;;;;4.30;2.30;;;;;;;6.90;96.11;98840.29;105424;1268;74083;-74
2022/04/10 09:23:53;;;;;;;4.60;2.30;;;;;;;6.99;96.07;98838.17;105416;1268;62107;-73
2022/04/10 09:26:20;;;;;;;4.80;2.40;;;;;;;7.16;95.48;98841.31;105109;1268;62309;-74
2022/04/10 09:28:50;;;;;;;4.90;2.00;;;;;;;7.33;95.47;98836.66;105086;1268;75623;-72
2022/04/10 09:31:31;;;;;;;7.50;1.90;;;;;;;7.54;95.05;98837.39;105390;1268;68846;-74
2022/04/10 09:34:06;;;;;;;3.90;2.10;;;;;;;7.72;94.71;98839.94;105397;1268;74561;-73
2022/04/10 09:36:35;;;;;;;3.70;2.30;;;;;;;7.86;93.79;98836.45;105406;1268;62197;-74
2022/04/10 09:39:04;;;;;;;4.40;2.30;;;;;;;7.93;93.47;98840.33;105471;1268;62113;-73
2022/04/10 09:41:31;;;;;;;6.20;3.00;;;;;;;8.00;93.69;98837.39;105572;1268;75382;-73
2022/04/10 09:44:11;;;;;;;5.60;3.00;;;;;;;8.11;93.72;98837.62;105272;1268;62141;-74
2022/04/10 09:46:39;;;;;;;6.50;3.30;;;;;;;8.20;93.13;98837.63;105390;1267;73135;-73
2022/04/10 09:49:11;;;;;;;4.70;3.50;;;;;;;8.28;93.33;98835.73;105133;1271;62203;-74
2022/04/10 09:51:57;;;;;;;7.30;3.30;;;;;;;8.37;93.18;98840.67;105368;1268;62049;-74
2022/04/10 09:54:24;;;;;;;5.20;3.40;;;;;;;8.24;92.34;98843.77;105426;1267;75923;-74
2022/04/10 09:56:54;;;;;;;4.30;3.20;;;;;;;7.98;92.09;98846.00;105461;1268;69348;-74
2022/04/10 09:59:27;;;;;;;6.40;2.80;;;;;;;7.78;92.48;98846.98;105470;1268;73276;-74
2022/04/10 10:01:55;;;;;;;4.60;3.00;;;;;;;7.67;92.95;98851.55;105424;1268;62170;-73
2022/04/10 10:04:22;;;;;;;5.30;3.00;;;;;;;7.67;92.77;98847.48;105401;1268;62158;-74
2022/04/10 10:06:50;;;;;;;6.40;2.60;;;;;;;7.80;91.67;98847.80;105388;1268;76177;-73
2022/04/10 10:09:17;;;;;;;3.90;2.40;;;;;;;7.97;92.04;98845.93;105407;1268;70820;-74
2022/04/10 10:11:44;;;;;;;5.90;2.50;;;;;;;8.15;91.43;98847.50;105169;1269;74602;-74
2022/04/10 10:14:11;;;;;;;10.70;6.40;;;;;;;8.28;89.44;98849.56;105429;1268;62096;-74
2022/04/10 10:16:41;;;;;;;3.90;2.20;;;;;;;8.21;86.55;98848.40;105417;1268;62285;-77
2022/04/10 10:19:08;;;;;;;8.60;5.20;;;;;;;8.02;84.60;98846.67;105553;1267;76429;-75
2022/04/10 10:21:36;;;;;;;14.60;8.80;;;;;;;7.87;86.70;98843.15;105444;1268;68981;-73
2022/04/10 10:24:04;;;;;;;6.80;4.20;;;;;;;7.82;86.47;98843.77;105406;1267;73170;-74
2022/04/10 10:26:50;;;;;;;6.20;2.90;;;;;;;7.76;87.48;98848.92;105410;1268;62090;-73
2022/04/10 10:29:34;;;;;;;4.00;2.30;;;;;;;7.80;88.13;98848.84;105462;1268;62068;-73
2022/04/10 10:32:08;;;;;;;4.70;2.80;;;;;;;7.73;87.47;98852.95;105433;1268;76904;-74
2022/04/10 10:34:34;;;;;;;3.90;2.10;;;;;;;7.55;86.24;98851.13;105715;1268;67340;-73
2022/04/10 10:37:03;;;;;;;8.00;5.40;;;;;;;7.40;86.71;98855.02;105392;1268;73437;-73
2022/04/10 10:39:31;;;;;;;5.60;2.40;;;;;;;7.28;85.51;98859.74;105512;1268;62166;-74
2022/04/10 10:42:12;;;;;;;4.70;2.90;;;;;;;7.17;86.17;98858.41;105500;1268;62158;-73
2022/04/10 10:44:39;;;;;;;5.30;2.70;;;;;;;7.27;86.32;98858.73;105450;1268;75659;-74
2022/04/10 10:47:14;;;;;;;5.70;2.70;;;;;;;7.46;85.96;98858.02;105491;1268;69177;-72
2022/04/10 10:49:46;;;;;;;7.10;3.10;;;;;;;7.56;85.90;98859.23;105322;1268;73233;-73
2022/04/10 10:52:13;;;;;;;4.10;2.90;;;;;;;7.64;86.23;98855.58;105561;1268;62193;-74
2022/04/10 10:54:55;;;;;;;7.30;4.20;;;;;;;7.82;86.63;98855.08;105426;1268;61934;-72
2022/04/10 10:57:23;;;;;;;7.30;2.90;;;;;;;8.06;85.96;98850.70;105561;1268;76941;-74
2022/04/10 11:00:06;;;;;;;6.40;3.50;;;;;;;8.18;83.20;98847.16;105224;1268;67874;-73
2022/04/10 11:02:35;;;;;;;4.00;3.00;;;;;;;8.24;83.93;98846.45;105397;1267;73368;-73
2022/04/10 11:05:07;;;;;;;6.60;4.20;;;;;;;8.26;83.97;98842.27;105481;1268;62177;-73
2022/04/10 11:07:39;;;;;;;5.40;4.30;;;;;;;8.36;85.14;98837.55;105453;1268;62027;-73
2022/04/10 11:10:11;;;;;;;9.50;5.30;;;;;;;8.57;85.06;98832.06;105439;1267;76035;-73
2022/04/10 11:13:04;;;;;;;6.00;4.20;;;;;;;8.73;84.53;98835.46;105411;1268;68803;-74
2022/04/10 11:15:55;;;;;;;10.10;5.80;;;;;;;8.86;83.28;98834.19;105397;1268;73729;-73
2022/04/10 11:18:35;;;;;;;6.70;4.90;;;;;;;8.96;83.92;98832.48;105457;1267;62129;-73
2022/04/10 11:21:09;;;;;;;5.60;4.60;;;;;;;9.09;83.78;98832.38;105466;1268;62397;-74